Weather at Batu Pahat Airport

Public forecast

Using degrees Celsius for public forecast. Weather courtesy of forecast.io.

Closest aviation weather report (METAR) to Batu Pahat Airport

Closest report is Senai International Airport, 41.4 nm (76.7 km) E.

2024/06/14 16:00 (retrieved 32 minutes ago)

WMKJ 141600Z 00000KT 9999 FEW008 24/23 Q1009

Closest aviation forecast (TAF) to Batu Pahat Airport

Forecast is more than 6 hours old.

Closest forecast is Kluang Airport, 26.1 nm (48.3 km) NE.

2024/06/14 06:00 (retrieved 11 hours ago)

TAF WMAP 140500Z 1406/1506 VRB02KT 7000 FEW018 TEMPO 1406/1410 4000 TSRA FEW017CB SCT020